Time;durP1;ratioP1;P1;durP2;ratioP2;P2;SDS_P1;SDS_P2;PMS_P1;PMS_P2;Temp;Humidity;BMP_temperature;BMP_pressure;BME280_temperature;BME280_humidity;BME280_pressure;Samples;Min_cycle;Max_cycle;Signal;HPM_P1;HPM_P2
2023/10/18 00:00:25;;;;;;;5.53;3.10;;;13.10;88.60;;;;;;10523923;28;20418;-64
2023/10/18 00:05:26;;;;;;;6.07;3.40;;;13.10;88.70;;;;;;10513031;28;20410;-65
2023/10/18 00:10:27;;;;;;;5.88;3.55;;;13.00;88.60;;;;;;10523625;28;20414;-65
2023/10/18 00:15:28;;;;;;;6.80;3.72;;;13.00;88.70;;;;;;10530483;28;20402;-65
2023/10/18 00:20:29;;;;;;;5.45;3.90;;;13.00;88.80;;;;;;10533822;28;20416;-65
2023/10/18 00:25:32;;;;;;;6.03;4.07;;;13.00;88.80;;;;;;10538428;28;20408;-64
2023/10/18 00:30:32;;;;;;;6.15;3.85;;;13.00;88.80;;;;;;10514339;28;20428;-65
2023/10/18 00:35:36;;;;;;;6.90;4.20;;;12.90;88.80;;;;;;10516403;28;21011;-64
2023/10/18 00:40:39;;;;;;;6.50;4.30;;;12.90;88.80;;;;;;10541970;28;20470;-64
2023/10/18 00:45:43;;;;;;;6.85;4.05;;;12.90;88.80;;;;;;10541918;28;20407;-64
2023/10/18 00:50:45;;;;;;;8.15;4.50;;;12.90;88.80;;;;;;10539054;28;20408;-65
2023/10/18 00:55:48;;;;;;;7.35;4.47;;;12.90;88.90;;;;;;10528101;28;20893;-65
2023/10/18 01:00:50;;;;;;;8.25;4.80;;;12.90;88.90;;;;;;10528961;28;20405;-65
2023/10/18 01:06:12;;;;;;;8.33;4.87;;;12.80;88.90;;;;;;10537679;28;20413;-65
2023/10/18 01:11:25;;;;;;;8.75;4.80;;;12.80;88.90;;;;;;10533517;28;20406;-64
2023/10/18 01:16:30;;;;;;;8.48;4.95;;;12.80;88.90;;;;;;10537772;28;20400;-63
2023/10/18 01:21:33;;;;;;;7.82;5.03;;;12.80;89.00;;;;;;10529778;28;20407;-65
2023/10/18 01:26:38;;;;;;;8.68;5.72;;;12.80;89.00;;;;;;10533824;28;20418;-64
2023/10/18 01:31:43;;;;;;;8.07;5.35;;;12.70;89.00;;;;;;10536474;28;20933;-64
2023/10/18 01:36:43;;;;;;;9.82;5.75;;;12.70;89.00;;;;;;10535157;28;20763;-64
2023/10/18 01:41:53;;;;;;;9.97;5.90;;;12.70;89.10;;;;;;10535567;28;20414;-65
2023/10/18 01:47:04;;;;;;;10.47;5.93;;;12.70;89.10;;;;;;10524647;28;20438;-65
2023/10/18 01:52:06;;;;;;;9.73;6.35;;;12.70;89.20;;;;;;10537216;28;20401;-63
2023/10/18 01:57:07;;;;;;;9.82;6.10;;;12.70;89.20;;;;;;10523277;28;20409;-64
2023/10/18 02:02:10;;;;;;;10.37;6.43;;;12.70;89.30;;;;;;10537979;28;20931;-64
2023/10/18 02:07:17;;;;;;;9.87;6.47;;;12.70;89.30;;;;;;10532956;28;20420;-65
2023/10/18 02:12:19;;;;;;;11.13;7.10;;;12.60;89.30;;;;;;10526525;28;20387;-65
2023/10/18 02:17:19;;;;;;;10.25;6.40;;;12.60;89.40;;;;;;10533806;28;20429;-64
2023/10/18 02:22:20;;;;;;;11.30;6.73;;;12.60;89.40;;;;;;10525111;28;20405;-64
2023/10/18 02:27:23;;;;;;;11.47;7.40;;;12.60;89.50;;;;;;10530053;28;20409;-63
2023/10/18 02:32:31;;;;;;;11.15;6.85;;;12.60;89.40;;;;;;10513727;28;20420;-64
2023/10/18 02:37:32;;;;;;;11.65;6.88;;;12.60;89.50;;;;;;10528253;28;20401;-63
2023/10/18 02:42:33;;;;;;;11.70;7.10;;;12.60;89.50;;;;;;10535637;28;20401;-63
2023/10/18 02:47:33;;;;;;;11.73;7.40;;;12.60;89.50;;;;;;10532009;28;20853;-64
2023/10/18 02:52:35;;;;;;;12.43;7.80;;;12.50;89.50;;;;;;10507159;28;20399;-64
2023/10/18 02:57:36;;;;;;;13.90;7.75;;;12.50;89.50;;;;;;10510595;28;20398;-64
2023/10/18 03:02:36;;;;;;;12.50;7.43;;;12.50;89.50;;;;;;10530449;28;20397;-63
2023/10/18 03:07:37;;;;;;;13.57;8.17;;;12.50;89.40;;;;;;10530652;28;20911;-64
2023/10/18 03:12:38;;;;;;;14.00;7.43;;;12.50;89.50;;;;;;10535249;28;20741;-64
2023/10/18 03:17:39;;;;;;;13.30;8.32;;;12.50;89.60;;;;;;10525804;28;20401;-64
2023/10/18 03:22:43;;;;;;;13.73;7.93;;;12.50;89.50;;;;;;10515034;28;20398;-64
2023/10/18 03:27:57;;;;;;;15.27;8.13;;;12.50;89.60;;;;;;10526389;28;20423;-63
2023/10/18 03:33:00;;;;;;;12.75;8.43;;;12.50;89.60;;;;;;10532319;28;20403;-65
2023/10/18 03:38:03;;;;;;;14.03;8.30;;;12.40;89.50;;;;;;10528184;28;20424;-63
2023/10/18 03:43:09;;;;;;;14.20;8.57;;;12.40;89.50;;;;;;10517967;28;20417;-63
2023/10/18 03:48:23;;;;;;;15.00;8.68;;;12.40;89.50;;;;;;10520612;28;20418;-64
2023/10/18 03:53:23;;;;;;;14.20;8.95;;;12.40;89.60;;;;;;10522620;28;20947;-62
2023/10/18 03:58:26;;;;;;;15.87;9.03;;;12.40;89.60;;;;;;10516180;28;20460;-64
2023/10/18 04:03:29;;;;;;;14.02;8.82;;;12.40;89.60;;;;;;10539207;28;20982;-64
2023/10/18 04:08:32;;;;;;;14.60;8.67;;;12.40;89.50;;;;;;10536778;28;20859;-62
2023/10/18 04:13:32;;;;;;;13.77;8.83;;;12.30;89.60;;;;;;10538771;28;20394;-64
2023/10/18 04:18:35;;;;;;;15.23;9.57;;;12.30;89.50;;;;;;10534569;28;20426;-63
2023/10/18 04:23:36;;;;;;;14.65;8.90;;;12.30;89.50;;;;;;10538607;28;20404;-64
2023/10/18 04:28:38;;;;;;;15.25;9.23;;;12.30;89.60;;;;;;10539485;28;20920;-63
2023/10/18 04:33:42;;;;;;;15.57;9.45;;;12.30;89.60;;;;;;10539572;28;20422;-64
2023/10/18 04:38:44;;;;;;;14.20;8.48;;;12.30;89.70;;;;;;10538019;28;20420;-63
2023/10/18 04:43:45;;;;;;;14.52;9.18;;;12.40;89.70;;;;;;10532834;28;20400;-63
2023/10/18 04:53:52;;;;;;;14.05;8.88;;;12.30;89.70;;;;;;10538132;28;20484;-63
2023/10/18 04:58:53;;;;;;;14.77;8.87;;;12.30;89.70;;;;;;10530234;28;20451;-64
2023/10/18 05:03:58;;;;;;;13.73;8.50;;;12.20;89.70;;;;;;10534723;28;20447;-64
2023/10/18 05:09:01;;;;;;;15.43;9.30;;;12.30;89.70;;;;;;10533236;28;20414;-63
2023/10/18 05:14:18;;;;;;;14.75;8.88;;;12.20;89.70;;;;;;10523831;28;20388;-64
2023/10/18 05:19:28;;;;;;;15.20;9.18;;;12.30;89.80;;;;;;10530732;28;20437;-64
2023/10/18 05:24:32;;;;;;;14.68;9.05;;;12.20;90.10;;;;;;10535306;28;20854;-64
2023/10/18 05:29:43;;;;;;;14.20;8.90;;;12.20;89.80;;;;;;10535548;28;20423;-65
2023/10/18 05:34:53;;;;;;;15.20;9.20;;;12.20;89.70;;;;;;10534296;28;20398;-64
2023/10/18 05:45:14;;;;;;;14.17;8.97;;;12.20;89.70;;;;;;10527550;28;21752;-64
2023/10/18 05:50:14;;;;;;;14.65;8.82;;;12.20;89.80;;;;;;10527243;28;20924;-64
2023/10/18 05:55:15;;;;;;;14.40;8.70;;;12.20;89.80;;;;;;10531751;28;20404;-64
2023/10/18 06:00:19;;;;;;;13.50;8.52;;;12.20;89.80;;;;;;10524485;28;20407;-64
2023/10/18 06:05:27;;;;;;;14.57;9.30;;;12.20;89.90;;;;;;10511141;28;20971;-63
2023/10/18 06:10:28;;;;;;;14.05;8.50;;;12.10;89.90;;;;;;10534142;28;20788;-64
2023/10/18 06:15:52;;;;;;;13.83;8.90;;;12.10;89.80;;;;;;10513177;28;20392;-65
2023/10/18 06:20:58;;;;;;;13.40;8.38;;;12.10;89.80;;;;;;10522907;28;20406;-64
2023/10/18 06:25:59;;;;;;;13.85;8.50;;;12.10;89.80;;;;;;10530054;28;20428;-64
2023/10/18 06:31:00;;;;;;;13.68;8.23;;;12.10;89.80;;;;;;10531137;28;20406;-65
2023/10/18 06:36:11;;;;;;;13.60;8.40;;;12.10;89.80;;;;;;10535687;28;20919;-63
2023/10/18 06:41:18;;;;;;;14.18;8.52;;;12.10;89.90;;;;;;10522439;28;20791;-64
2023/10/18 06:46:26;;;;;;;12.23;7.78;;;12.10;89.80;;;;;;10510143;28;20413;-64
2023/10/18 06:51:43;;;;;;;12.10;8.07;;;12.10;90.00;;;;;;10521997;28;20486;-64
2023/10/18 06:56:46;;;;;;;12.95;7.97;;;12.10;90.00;;;;;;10521247;28;20433;-64
2023/10/18 07:01:54;;;;;;;13.45;8.10;;;12.10;90.20;;;;;;10529172;28;20887;-65
2023/10/18 07:06:55;;;;;;;11.75;7.80;;;12.10;90.00;;;;;;10531489;28;20762;-65
2023/10/18 07:12:03;;;;;;;12.02;7.75;;;12.10;89.90;;;;;;10524118;28;20402;-63
2023/10/18 07:17:09;;;;;;;11.20;7.47;;;12.10;89.80;;;;;;10526559;28;20940;-65
2023/10/18 07:22:17;;;;;;;12.57;8.43;;;12.10;89.80;;;;;;10525032;28;20426;-65
2023/10/18 07:27:18;;;;;;;12.20;7.80;;;12.10;89.80;;;;;;10522581;28;20422;-63
2023/10/18 07:32:24;;;;;;;11.10;7.63;;;12.20;89.80;;;;;;10532134;28;20405;-64
2023/10/18 07:37:24;;;;;;;12.80;7.97;;;12.10;89.80;;;;;;10527753;28;20435;-64
2023/10/18 07:42:34;;;;;;;11.88;7.55;;;12.10;89.70;;;;;;10537131;28;20530;-64
2023/10/18 07:47:37;;;;;;;11.43;7.43;;;12.10;90.20;;;;;;10519050;28;20475;-63
2023/10/18 07:52:38;;;;;;;12.57;7.70;;;12.10;89.80;;;;;;10534437;28;20415;-63
2023/10/18 07:57:46;;;;;;;11.57;7.33;;;12.20;90.10;;;;;;10533054;28;20411;-68
2023/10/18 08:02:50;;;;;;;10.75;7.43;;;12.20;90.10;;;;;;10527719;28;20411;-65
2023/10/18 08:07:55;;;;;;;11.52;6.65;;;12.20;90.10;;;;;;10516253;28;20449;-66
2023/10/18 08:13:07;;;;;;;11.20;7.00;;;12.40;90.10;;;;;;10527375;28;20404;-72
2023/10/18 08:18:17;;;;;;;18.05;11.43;;;12.20;90.50;;;;;;10511995;28;20920;-72
2023/10/18 08:28:42;;;;;;;19.00;11.65;;;11.00;90.40;;;;;;10514109;28;20430;-71
2023/10/18 08:34:10;;;;;;;17.70;10.33;;;10.60;91.30;;;;;;10523899;28;20790;-66
2023/10/18 08:39:31;;;;;;;14.60;9.60;;;10.60;91.90;;;;;;10532686;28;20416;-66
2023/10/18 08:44:55;;;;;;;14.53;9.00;;;10.90;91.80;;;;;;10525225;28;20388;-65
2023/10/18 08:50:18;;;;;;;13.15;8.07;;;11.20;91.60;;;;;;10522337;28;20590;-68
2023/10/18 08:55:45;;;;;;;13.50;8.27;;;11.40;91.40;;;;;;10515320;28;20911;-66
2023/10/18 09:01:09;;;;;;;11.20;7.55;;;11.60;91.40;;;;;;10531815;28;20781;-67
2023/10/18 09:06:31;;;;;;;12.10;7.50;;;11.70;91.30;;;;;;10511479;28;20408;-67
2023/10/18 09:11:53;;;;;;;12.10;7.15;;;11.80;91.30;;;;;;10521100;28;20454;-67
2023/10/18 09:17:21;;;;;;;10.10;6.65;;;12.10;91.20;;;;;;10517878;28;20749;-65
2023/10/18 09:22:48;;;;;;;9.90;6.43;;;12.10;91.20;;;;;;10507423;28;20879;-66
2023/10/18 09:28:10;;;;;;;8.88;5.82;;;12.10;91.20;;;;;;10519264;28;20403;-66
2023/10/18 09:33:35;;;;;;;8.30;5.50;;;12.20;91.20;;;;;;10526266;28;20824;-66
2023/10/18 09:38:57;;;;;;;8.95;5.45;;;12.20;91.20;;;;;;10519897;28;20824;-66
2023/10/18 09:44:18;;;;;;;7.17;5.10;;;12.20;91.20;;;;;;10526985;28;20476;-66
2023/10/18 09:49:42;;;;;;;9.40;5.30;;;12.20;91.10;;;;;;10512533;28;20406;-67
2023/10/18 09:55:06;;;;;;;7.43;5.07;;;12.30;91.30;;;;;;10522957;28;20397;-66
2023/10/18 10:00:30;;;;;;;7.20;4.90;;;12.30;91.10;;;;;;10527747;28;20399;-66
2023/10/18 10:05:52;;;;;;;7.18;4.90;;;12.40;91.10;;;;;;10525170;28;20404;-67
2023/10/18 10:11:18;;;;;;;7.65;4.72;;;12.40;91.10;;;;;;10513507;28;20480;-68
2023/10/18 10:16:45;;;;;;;8.32;4.95;;;12.50;91.10;;;;;;10519503;28;20465;-66
2023/10/18 10:21:46;;;;;;;7.35;4.50;;;12.50;91.00;;;;;;10519634;28;20849;-67
2023/10/18 10:26:48;;;;;;;8.27;4.93;;;12.70;91.10;;;;;;10523541;28;20439;-68
2023/10/18 10:31:51;;;;;;;6.80;4.87;;;12.60;91.00;;;;;;10508376;28;20404;-68
2023/10/18 10:37:16;;;;;;;6.78;4.75;;;12.60;91.00;;;;;;10520560;28;20636;-68
2023/10/18 10:47:50;;;;;;;6.63;4.47;;;12.70;90.90;;;;;;10535183;28;20613;-67
2023/10/18 10:52:50;;;;;;;6.50;4.20;;;12.70;90.80;;;;;;10514792;28;20402;-67
2023/10/18 10:57:52;;;;;;;6.07;4.33;;;12.80;90.80;;;;;;10521723;28;20404;-68
2023/10/18 11:02:54;;;;;;;7.05;4.45;;;12.80;90.90;;;;;;10525006;28;20770;-66
2023/10/18 11:07:55;;;;;;;6.30;4.30;;;12.80;91.00;;;;;;10529086;28;20435;-67
2023/10/18 11:12:56;;;;;;;6.13;4.50;;;14.10;91.30;;;;;;10529610;28;20412;-67
2023/10/18 11:18:09;;;;;;;5.83;3.90;;;12.90;91.20;;;;;;10524016;28;20394;-67
2023/10/18 11:23:10;;;;;;;6.93;4.40;;;12.90;91.30;;;;;;10524972;28;20409;-70
2023/10/18 11:28:28;;;;;;;12.15;7.57;;;13.20;91.20;;;;;;10518576;28;20555;-72
2023/10/18 11:33:54;;;;;;;12.40;7.22;;;12.70;90.30;;;;;;10530287;28;20388;-71
2023/10/18 11:44:26;;;;;;;11.13;7.25;;;12.00;91.10;;;;;;10530931;28;20410;-73
2023/10/18 11:49:35;;;;;;;12.85;7.93;;;12.00;91.10;;;;;;10527912;28;20488;-69
2023/10/18 11:54:36;;;;;;;12.52;7.32;;;12.10;90.90;;;;;;10528969;28;20386;-71
2023/10/18 11:59:51;;;;;;;18.50;7.57;;;12.20;90.80;;;;;;10512709;28;20403;-70
2023/10/18 12:04:52;;;;;;;14.50;7.70;;;12.30;90.80;;;;;;10521528;28;20764;-71
2023/10/18 12:09:53;;;;;;;11.27;7.37;;;12.40;90.80;;;;;;10482124;28;20415;-71
2023/10/18 12:14:53;;;;;;;11.17;7.73;;;12.50;91.10;;;;;;10524286;28;20384;-71
2023/10/18 12:19:54;;;;;;;11.60;7.23;;;13.00;91.10;;;;;;10534771;28;20406;-72
2023/10/18 12:24:54;;;;;;;11.03;7.60;;;12.90;90.60;;;;;;10525983;28;20382;-72
2023/10/18 12:29:59;;;;;;;15.07;7.23;;;12.50;90.50;;;;;;10535161;28;20930;-72
2023/10/18 12:35:06;;;;;;;9.47;6.70;;;13.20;91.20;;;;;;10532436;28;20834;-72
2023/10/18 12:40:28;;;;;;;10.90;6.63;;;12.80;90.70;;;;;;10532175;28;20846;-70
2023/10/18 12:45:29;;;;;;;10.47;7.10;;;12.70;90.50;;;;;;10528984;28;20396;-69
2023/10/18 12:50:30;;;;;;;10.45;6.47;;;12.70;90.50;;;;;;10528638;28;20456;-67
2023/10/18 12:55:36;;;;;;;9.38;5.38;;;12.80;89.50;;;;;;10527766;28;20400;-65
2023/10/18 13:00:42;;;;;;;8.50;4.80;;;13.10;92.80;;;;;;10526244;28;20500;-67
2023/10/18 13:05:45;;;;;;;9.48;5.00;;;13.40;91.90;;;;;;10536540;28;20401;-68
2023/10/18 13:11:00;;;;;;;10.27;4.43;;;13.60;92.00;;;;;;10520437;28;20407;-67
2023/10/18 13:16:01;;;;;;;9.07;4.60;;;13.60;92.10;;;;;;10533601;28;20415;-67
2023/10/18 13:21:07;;;;;;;9.10;4.30;;;13.70;92.10;;;;;;10529706;28;20486;-66
2023/10/18 13:26:10;;;;;;;8.55;4.50;;;13.70;92.10;;;;;;10526983;28;20398;-67
2023/10/18 13:31:18;;;;;;;8.50;4.47;;;13.80;92.20;;;;;;10519497;28;20958;-66
2023/10/18 13:36:21;;;;;;;9.47;4.87;;;14.20;92.30;;;;;;10528545;28;20468;-66
2023/10/18 13:41:22;;;;;;;8.90;4.22;;;13.90;92.30;;;;;;10511304;28;20424;-66
2023/10/18 13:46:23;;;;;;;10.47;4.30;;;14.00;92.30;;;;;;10510080;28;20384;-66
2023/10/18 13:51:23;;;;;;;8.48;4.30;;;14.00;92.40;;;;;;10527707;28;20405;-66
2023/10/18 13:56:24;;;;;;;6.97;4.30;;;14.00;92.50;;;;;;10533685;28;20397;-66
2023/10/18 14:01:25;;;;;;;7.20;4.07;;;14.10;92.40;;;;;;10523680;28;20390;-66
2023/10/18 14:06:29;;;;;;;10.48;4.43;;;14.50;92.60;;;;;;10531426;28;20400;-66
2023/10/18 14:11:30;;;;;;;8.57;4.32;;;14.20;92.60;;;;;;10521243;28;20759;-66
2023/10/18 14:16:31;;;;;;;8.38;4.43;;;14.30;92.80;;;;;;10529615;28;20419;-66
2023/10/18 14:21:32;;;;;;;8.10;4.00;;;14.30;92.80;;;;;;10524625;28;20390;-66
2023/10/18 14:26:34;;;;;;;6.80;3.83;;;14.40;92.80;;;;;;10523942;28;20424;-66
2023/10/18 14:31:35;;;;;;;12.60;6.75;;;14.30;92.70;;;;;;10521216;28;20857;-71
2023/10/18 14:36:38;;;;;;;10.77;6.45;;;14.10;90.10;;;;;;10512975;28;20398;-68
2023/10/18 14:41:38;;;;;;;8.65;5.60;;;13.90;91.00;;;;;;10535929;28;20393;-68
2023/10/18 14:46:41;;;;;;;9.47;6.03;;;13.80;91.40;;;;;;10538849;28;20380;-68
2023/10/18 14:51:44;;;;;;;9.07;5.60;;;13.90;91.30;;;;;;10522132;28;20401;-69
2023/10/18 14:56:44;;;;;;;8.93;4.90;;;13.90;91.90;;;;;;10521181;28;20380;-67
2023/10/18 15:01:45;;;;;;;8.43;4.93;;;14.00;91.80;;;;;;10526690;28;20393;-67
2023/10/18 15:06:45;;;;;;;6.68;4.45;;;14.00;92.20;;;;;;10525185;28;20386;-66
2023/10/18 15:11:49;;;;;;;9.53;4.37;;;14.10;92.10;;;;;;10512089;28;20409;-66
2023/10/18 15:16:49;;;;;;;6.68;4.43;;;14.10;92.40;;;;;;10515556;28;20682;-67
2023/10/18 15:21:50;;;;;;;5.60;4.17;;;14.10;92.20;;;;;;10513142;28;20394;-68
2023/10/18 15:26:51;;;;;;;6.30;4.10;;;14.00;92.40;;;;;;10519807;28;20420;-68
2023/10/18 15:31:51;;;;;;;7.17;4.30;;;14.00;92.30;;;;;;10519972;28;20662;-68
2023/10/18 15:36:52;;;;;;;8.27;4.22;;;14.00;92.60;;;;;;10498761;28;20406;-68
2023/10/18 15:41:53;;;;;;;5.28;3.95;;;14.00;92.40;;;;;;10524081;28;20397;-67
2023/10/18 15:46:59;;;;;;;6.80;4.27;;;14.00;92.60;;;;;;10523528;28;20510;-68
2023/10/18 15:52:01;;;;;;;6.77;4.63;;;14.00;92.60;;;;;;10519842;28;20760;-67
2023/10/18 15:57:01;;;;;;;9.30;4.07;;;14.00;92.10;;;;;;10530390;28;20389;-67
2023/10/18 16:02:11;;;;;;;6.20;4.30;;;14.40;92.60;;;;;;10542832;28;20932;-66
2023/10/18 16:07:11;;;;;;;7.22;4.20;;;13.90;93.00;;;;;;10514504;28;20971;-67
2023/10/18 16:12:15;;;;;;;6.95;4.13;;;13.90;93.00;;;;;;10533193;28;20468;-66
2023/10/18 16:17:15;;;;;;;6.43;3.73;;;14.00;93.00;;;;;;10537452;28;20792;-66
2023/10/18 16:22:16;;;;;;;6.07;4.30;;;13.90;93.10;;;;;;10529702;28;20403;-67
2023/10/18 16:27:16;;;;;;;6.67;3.90;;;13.90;93.20;;;;;;10520394;28;20452;-67
2023/10/18 16:32:17;;;;;;;5.70;3.97;;;14.00;93.30;;;;;;10512788;28;20396;-67
2023/10/18 16:37:18;;;;;;;5.70;4.00;;;13.90;93.40;;;;;;10527153;28;20397;-66
2023/10/18 16:42:18;;;;;;;6.30;4.23;;;13.90;93.60;;;;;;10527654;28;20402;-66
2023/10/18 16:47:21;;;;;;;6.37;3.53;;;13.90;93.70;;;;;;10519825;28;20496;-67
2023/10/18 16:52:21;;;;;;;6.22;3.90;;;13.90;93.80;;;;;;10525455;28;20454;-67
2023/10/18 16:57:22;;;;;;;7.07;4.47;;;13.80;93.80;;;;;;10532233;28;20493;-69
2023/10/18 17:02:22;;;;;;;6.80;4.63;;;13.80;93.50;;;;;;10528550;28;20441;-64
2023/10/18 17:07:23;;;;;;;7.80;4.43;;;13.70;93.10;;;;;;10529839;28;20448;-64
2023/10/18 17:12:23;;;;;;;6.90;4.07;;;13.70;93.40;;;;;;10529692;28;20384;-64
2023/10/18 17:17:24;;;;;;;6.47;4.37;;;13.70;93.60;;;;;;10536363;28;20394;-66
2023/10/18 17:22:25;;;;;;;8.43;4.57;;;13.70;93.70;;;;;;10525292;28;20419;-65
2023/10/18 17:27:26;;;;;;;9.10;4.90;;;14.00;93.60;;;;;;10526059;28;20734;-65
2023/10/18 17:32:28;;;;;;;7.40;4.47;;;13.70;93.70;;;;;;10522289;28;20393;-67
2023/10/18 17:37:29;;;;;;;6.43;4.57;;;13.70;94.10;;;;;;10517403;28;20388;-65
2023/10/18 17:42:29;;;;;;;7.23;4.23;;;14.10;94.30;;;;;;10533137;28;20429;-66
2023/10/18 17:47:30;;;;;;;6.40;4.47;;;13.70;94.30;;;;;;10527866;28;20408;-66
2023/10/18 17:52:31;;;;;;;7.68;4.75;;;13.70;94.50;;;;;;10515844;28;20393;-65
2023/10/18 17:57:34;;;;;;;7.73;4.67;;;13.70;94.70;;;;;;10504860;28;20427;-64
2023/10/18 18:02:43;;;;;;;7.68;4.60;;;13.70;94.70;;;;;;10523554;28;20605;-65
2023/10/18 18:07:44;;;;;;;5.47;4.00;;;13.70;94.70;;;;;;10529359;28;20435;-66
2023/10/18 18:12:47;;;;;;;6.57;4.20;;;13.60;94.30;;;;;;10513601;28;20492;-66
2023/10/18 18:17:48;;;;;;;5.75;3.92;;;13.70;94.40;;;;;;10511351;28;20398;-65
2023/10/18 18:22:49;;;;;;;6.07;4.10;;;13.70;94.40;;;;;;10509622;28;20402;-66
2023/10/18 18:27:50;;;;;;;6.25;4.32;;;13.60;94.40;;;;;;10496570;28;21002;-65
2023/10/18 18:32:50;;;;;;;6.83;4.20;;;13.60;94.40;;;;;;10516493;28;21291;-65
2023/10/18 18:37:51;;;;;;;5.35;3.75;;;13.70;94.30;;;;;;10509181;28;20475;-66
2023/10/18 18:42:52;;;;;;;6.97;4.10;;;13.70;94.30;;;;;;10513669;28;20390;-65
2023/10/18 18:47:52;;;;;;;5.87;3.97;;;13.70;94.40;;;;;;10510966;28;20406;-66
2023/10/18 18:52:53;;;;;;;6.80;4.30;;;13.90;94.30;;;;;;10517222;28;20484;-64
2023/10/18 18:57:55;;;;;;;6.57;4.13;;;13.60;94.30;;;;;;10508167;28;20409;-65
2023/10/18 19:02:56;;;;;;;6.13;4.03;;;13.60;94.30;;;;;;10522901;28;20994;-66
2023/10/18 19:07:57;;;;;;;4.93;3.60;;;13.60;94.20;;;;;;10508951;28;20398;-65
2023/10/18 19:12:57;;;;;;;5.30;3.90;;;14.30;94.40;;;;;;10524833;28;20393;-65
2023/10/18 19:18:00;;;;;;;5.97;3.80;;;13.60;94.10;;;;;;10513522;28;20936;-66
2023/10/18 19:23:04;;;;;;;5.70;3.83;;;13.60;94.10;;;;;;10521288;28;20789;-65
2023/10/18 19:28:04;;;;;;;6.50;3.90;;;13.60;94.10;;;;;;10502550;28;20409;-66
2023/10/18 19:33:05;;;;;;;6.43;3.95;;;13.60;94.00;;;;;;10524053;28;20393;-66
2023/10/18 19:38:05;;;;;;;6.10;3.70;;;13.60;94.10;;;;;;10515724;28;20455;-66
2023/10/18 19:43:06;;;;;;;6.07;3.93;;;13.60;94.10;;;;;;10529134;28;21113;-66
2023/10/18 19:48:06;;;;;;;5.03;3.77;;;13.60;94.00;;;;;;10522766;28;21552;-65
2023/10/18 19:53:08;;;;;;;5.47;3.58;;;13.60;94.00;;;;;;10510816;28;21012;-66
2023/10/18 19:58:10;;;;;;;4.80;3.47;;;13.60;94.00;;;;;;10514937;28;20398;-66
2023/10/18 20:03:13;;;;;;;4.70;3.67;;;13.60;93.90;;;;;;10514088;28;20492;-66
2023/10/18 20:08:14;;;;;;;4.65;3.60;;;13.60;94.00;;;;;;10516415;28;20409;-65
2023/10/18 20:13:15;;;;;;;5.22;3.60;;;14.00;94.00;;;;;;10523454;28;20424;-67
2023/10/18 20:18:16;;;;;;;5.70;3.90;;;13.50;93.90;;;;;;10518499;28;20913;-66
2023/10/18 20:23:17;;;;;;;5.47;3.77;;;13.60;93.90;;;;;;10524062;28;20457;-67
2023/10/18 20:28:17;;;;;;;4.47;3.60;;;13.50;93.80;;;;;;10522202;28;20460;-66
2023/10/18 20:33:18;;;;;;;5.80;3.80;;;13.50;93.80;;;;;;10516265;28;20475;-66
2023/10/18 20:38:24;;;;;;;5.60;3.92;;;13.50;93.60;;;;;;10529917;28;20407;-65
2023/10/18 20:43:25;;;;;;;5.13;3.85;;;13.90;93.70;;;;;;10520331;28;20411;-66
2023/10/18 20:48:26;;;;;;;4.85;3.50;;;13.50;93.70;;;;;;10501177;28;20969;-66
2023/10/18 20:53:26;;;;;;;5.60;3.80;;;13.50;93.70;;;;;;10519624;28;21159;-66
2023/10/18 20:58:27;;;;;;;5.17;3.47;;;13.50;93.70;;;;;;10522122;28;20782;-65
2023/10/18 21:03:32;;;;;;;5.57;3.80;;;13.50;93.80;;;;;;10526064;28;20398;-66
2023/10/18 21:08:33;;;;;;;5.57;3.85;;;13.50;93.80;;;;;;10509835;28;20828;-65
2023/10/18 21:13:33;;;;;;;7.10;4.10;;;13.50;93.70;;;;;;10523160;28;20400;-66
2023/10/18 21:18:36;;;;;;;5.90;3.85;;;13.50;93.70;;;;;;10518142;28;20687;-66
2023/10/18 21:23:38;;;;;;;5.47;3.88;;;13.50;93.60;;;;;;10517873;28;20424;-66
2023/10/18 21:28:40;;;;;;;5.65;3.75;;;13.50;93.60;;;;;;10518905;28;20448;-66
2023/10/18 21:33:40;;;;;;;5.77;3.60;;;13.50;93.60;;;;;;10518932;28;21200;-65
2023/10/18 21:38:43;;;;;;;5.18;3.75;;;13.40;93.50;;;;;;10526793;28;20393;-66
2023/10/18 21:43:45;;;;;;;5.50;3.95;;;13.50;93.50;;;;;;10526550;28;20392;-65
2023/10/18 21:48:46;;;;;;;5.13;3.78;;;13.60;93.60;;;;;;10526049;28;20418;-65
2023/10/18 21:53:49;;;;;;;5.50;4.03;;;13.50;93.50;;;;;;10527355;28;20790;-66
2023/10/18 21:58:51;;;;;;;6.30;3.80;;;13.40;93.50;;;;;;10527823;28;20474;-66
2023/10/18 22:03:51;;;;;;;6.38;3.78;;;13.40;93.50;;;;;;10527151;28;20909;-66
2023/10/18 22:08:52;;;;;;;4.53;3.53;;;13.40;93.40;;;;;;10522265;28;20480;-65
2023/10/18 22:13:54;;;;;;;5.77;3.93;;;13.40;93.40;;;;;;10516710;28;20400;-66
2023/10/18 22:18:55;;;;;;;5.43;3.85;;;13.40;93.40;;;;;;10525377;28;20763;-66
2023/10/18 22:23:59;;;;;;;5.87;4.07;;;13.40;93.50;;;;;;10534261;28;20397;-66
2023/10/18 22:28:59;;;;;;;4.97;3.72;;;13.40;93.40;;;;;;10518452;28;20805;-65
2023/10/18 22:34:00;;;;;;;5.43;3.80;;;13.40;93.40;;;;;;10536801;28;20398;-66
2023/10/18 22:39:09;;;;;;;5.37;3.93;;;13.40;93.50;;;;;;10532648;28;20403;-66
2023/10/18 22:44:10;;;;;;;7.63;4.25;;;13.40;93.50;;;;;;10528748;28;20388;-66
2023/10/18 22:49:26;;;;;;;4.83;3.80;;;13.40;93.50;;;;;;10529256;28;20416;-66
2023/10/18 22:54:42;;;;;;;7.13;4.23;;;13.40;93.50;;;;;;10517949;28;20388;-66
2023/10/18 22:59:43;;;;;;;7.07;4.18;;;13.40;93.60;;;;;;10528195;28;20469;-66
2023/10/18 23:04:44;;;;;;;6.65;4.25;;;13.40;93.60;;;;;;10538276;28;20739;-65
2023/10/18 23:09:45;;;;;;;7.53;4.60;;;13.40;93.70;;;;;;10528096;28;20405;-66
2023/10/18 23:14:53;;;;;;;6.10;4.25;;;13.40;93.70;;;;;;10532057;28;20389;-66
2023/10/18 23:20:19;;;;;;;6.40;4.33;;;13.40;93.70;;;;;;10529223;28;20396;-66
2023/10/18 23:30:39;;;;;;;6.88;4.43;;;13.40;93.80;;;;;;10533955;28;20465;-66
2023/10/18 23:35:46;;;;;;;6.15;4.40;;;13.40;93.80;;;;;;10531520;28;20382;-66
2023/10/18 23:40:52;;;;;;;7.72;4.50;;;13.40;93.80;;;;;;10533266;28;20751;-66
2023/10/18 23:45:58;;;;;;;6.53;4.40;;;13.40;93.90;;;;;;10536748;28;20491;-65
2023/10/18 23:56:15;;;;;;;6.73;4.53;;;13.30;93.80;;;;;;10518932;28;20459;-65
